Time;durP1;ratioP1;P1;durP2;ratioP2;P2;SDS_P1;SDS_P2;PMS_P1;PMS_P2;Temp;Humidity;BMP_temperature;BMP_pressure;BME280_temperature;BME280_humidity;BME280_pressure;Samples;Min_cycle;Max_cycle;Signal;HPM_P1;HPM_P2
2023/07/19 00:02:42;;;;;;;2.63;1.55;;;;;;;17.09;47.37;99680.69;10428263;28;20052;-57
2023/07/19 00:07:45;;;;;;;1.77;1.08;;;;;;;17.06;47.73;99681.78;10428714;28;20075;-58
2023/07/19 00:12:47;;;;;;;1.95;1.20;;;;;;;17.02;47.60;99672.47;10429218;28;20063;-58
2023/07/19 00:17:57;;;;;;;6.03;1.30;;;;;;;16.99;47.67;99676.25;10428866;28;20053;-58
2023/07/19 00:22:59;;;;;;;2.22;1.35;;;;;;;16.92;47.87;99679.56;10427616;28;20041;-58
2023/07/19 00:28:01;;;;;;;1.55;1.15;;;;;;;16.93;47.77;99686.53;10428900;28;20311;-58
2023/07/19 00:33:03;;;;;;;1.48;0.93;;;;;;;16.95;47.79;99687.22;10426969;28;20541;-58
2023/07/19 00:38:08;;;;;;;1.20;1.02;;;;;;;16.89;48.00;99685.16;10426568;28;20053;-58
2023/07/19 00:43:10;;;;;;;2.22;1.20;;;;;;;16.75;48.18;99680.25;10426926;28;20045;-58
2023/07/19 00:48:16;;;;;;;5.80;1.83;;;;;;;16.77;48.10;99680.97;10441330;28;20315;-58
2023/07/19 00:53:19;;;;;;;2.42;1.20;;;;;;;16.73;48.03;99680.38;10440992;28;20053;-58
2023/07/19 00:58:25;;;;;;;2.60;1.40;;;;;;;16.72;48.13;99681.34;10426233;28;20135;-58
2023/07/19 01:03:27;;;;;;;2.97;1.35;;;;;;;16.69;48.45;99675.53;10424600;28;20501;-58
2023/07/19 01:08:29;;;;;;;2.10;1.17;;;;;;;16.69;48.62;99678.97;10424399;28;20111;-58
2023/07/19 01:13:31;;;;;;;1.83;1.20;;;;;;;16.64;48.39;99675.94;10426903;28;20048;-58
2023/07/19 01:18:33;;;;;;;2.95;1.35;;;;;;;16.56;48.68;99677.56;10426203;28;20126;-58
2023/07/19 01:23:35;;;;;;;1.40;1.20;;;;;;;16.53;48.83;99673.38;10425125;28;20079;-58
2023/07/19 01:28:37;;;;;;;1.80;1.25;;;;;;;16.39;49.09;99670.25;10424291;28;20041;-58
2023/07/19 01:33:39;;;;;;;4.65;1.35;;;;;;;16.12;49.80;99678.78;10425160;28;20049;-58
2023/07/19 01:38:41;;;;;;;1.48;1.00;;;;;;;15.80;50.14;99678.06;10424424;28;20056;-57
2023/07/19 01:43:43;;;;;;;1.80;1.20;;;;;;;15.99;50.09;99684.28;10422942;28;20073;-57
2023/07/19 01:48:45;;;;;;;1.90;1.08;;;;;;;16.12;49.72;99669.06;10426708;28;20539;-58
2023/07/19 01:53:47;;;;;;;1.75;1.20;;;;;;;16.17;49.57;99666.03;10424454;28;20151;-57
2023/07/19 01:58:50;;;;;;;2.25;1.13;;;;;;;16.04;49.72;99668.88;10423263;28;20323;-58
2023/07/19 02:03:52;;;;;;;2.22;1.42;;;;;;;15.96;50.02;99666.06;10430336;28;20056;-58
2023/07/19 02:08:54;;;;;;;2.90;1.20;;;;;;;15.78;50.38;99654.47;10434338;28;20536;-58
2023/07/19 02:13:56;;;;;;;1.25;0.95;;;;;;;15.77;50.75;99657.25;10432707;28;20069;-58
2023/07/19 02:18:58;;;;;;;7.05;1.48;;;;;;;15.76;50.72;99656.41;10413736;28;20084;-57
2023/07/19 02:24:01;;;;;;;1.13;0.93;;;;;;;15.69;50.78;99660.53;10430300;28;20051;-58
2023/07/19 02:29:03;;;;;;;2.40;1.05;;;;;;;15.71;50.79;99660.41;10430719;28;20056;-58
2023/07/19 02:34:08;;;;;;;2.20;1.13;;;;;;;15.62;51.10;99669.91;10411921;28;20045;-58
2023/07/19 02:39:10;;;;;;;3.60;2.03;;;;;;;15.63;51.19;99668.13;10430132;28;20152;-58
2023/07/19 02:44:12;;;;;;;3.58;1.40;;;;;;;15.61;51.36;99667.44;10432273;28;20118;-58
2023/07/19 02:49:14;;;;;;;2.40;1.20;;;;;;;15.55;51.15;99660.84;10412388;28;20044;-57
2023/07/19 02:54:16;;;;;;;2.35;1.33;;;;;;;15.48;51.54;99662.31;10431973;28;20095;-58
2023/07/19 02:59:18;;;;;;;3.08;1.20;;;;;;;15.38;51.63;99664.06;10432257;28;20128;-57
2023/07/19 03:04:20;;;;;;;2.17;1.60;;;;;;;15.28;51.89;99661.34;10441244;28;20524;-58
2023/07/19 03:09:22;;;;;;;3.10;1.50;;;;;;;15.19;51.97;99671.81;10406678;28;20075;-58
2023/07/19 03:14:24;;;;;;;2.17;1.50;;;;;;;14.98;52.52;99665.69;10440002;28;20052;-57
2023/07/19 03:19:26;;;;;;;2.80;1.73;;;;;;;14.94;52.80;99672.97;10392149;28;20157;-58
2023/07/19 03:24:29;;;;;;;0.95;0.90;;;;;;;14.96;52.89;99678.16;10421646;28;20061;-58
2023/07/19 03:29:32;;;;;;;3.10;1.63;;;;;;;14.85;53.08;99683.44;10409588;28;20064;-58
2023/07/19 03:34:34;;;;;;;2.67;1.48;;;;;;;14.69;53.15;99683.00;10429578;28;20045;-58
2023/07/19 03:39:36;;;;;;;2.05;1.20;;;;;;;14.71;53.25;99689.81;10430792;28;20056;-58
2023/07/19 03:44:38;;;;;;;2.22;1.20;;;;;;;14.71;53.51;99686.34;10447420;28;20049;-57
2023/07/19 03:49:40;;;;;;;1.73;1.10;;;;;;;14.63;53.43;99691.38;10429511;28;20059;-58
2023/07/19 03:54:43;;;;;;;1.95;1.10;;;;;;;14.72;53.59;99696.75;10429856;28;20072;-57
2023/07/19 03:59:46;;;;;;;1.95;1.20;;;;;;;14.81;53.43;99692.53;10428541;28;20049;-57
2023/07/19 04:04:49;;;;;;;2.55;1.10;;;;;;;14.85;53.44;99688.69;10427441;28;20045;-58
2023/07/19 04:09:51;;;;;;;1.75;1.00;;;;;;;14.91;53.54;99686.41;10428964;28;20634;-58
2023/07/19 04:14:53;;;;;;;2.03;1.27;;;;;;;14.92;53.29;99685.44;10427913;28;20443;-58
2023/07/19 04:19:59;;;;;;;3.92;1.38;;;;;;;14.96;53.48;99673.69;10428093;28;20063;-58
2023/07/19 04:25:03;;;;;;;2.28;1.38;;;;;;;15.10;53.34;99670.75;10425866;28;20045;-58
2023/07/19 04:30:06;;;;;;;2.63;1.20;;;;;;;15.43;52.91;99683.78;10428705;28;20136;-58
2023/07/19 04:35:09;;;;;;;1.77;1.25;;;;;;;17.11;50.52;99684.03;10428073;28;20519;-58
2023/07/19 04:40:12;;;;;;;3.53;1.60;;;;;;;19.55;46.53;99678.91;10425681;28;20099;-58
2023/07/19 04:45:15;;;;;;;2.33;1.00;;;;;;;21.24;43.81;99679.66;10411688;28;20060;-58
2023/07/19 04:50:18;;;;;;;3.92;1.30;;;;;;;23.54;40.56;99672.97;10441972;28;20052;-58
2023/07/19 04:55:21;;;;;;;3.13;1.65;;;;;;;24.06;39.01;99668.41;10426373;28;20041;-58
2023/07/19 05:00:27;;;;;;;3.13;1.50;;;;;;;25.09;37.28;99661.09;10426824;28;20045;-59
2023/07/19 05:05:29;;;;;;;2.33;1.20;;;;;;;26.44;35.43;99658.81;10424921;28;20041;-59
2023/07/19 05:10:35;;;;;;;4.38;1.27;;;;;;;24.66;35.89;99656.66;10427348;28;20056;-59
2023/07/19 05:15:38;;;;;;;2.55;1.15;;;;;;;22.23;39.32;99665.06;10410682;28;20045;-58
2023/07/19 05:20:44;;;;;;;2.10;1.20;;;;;;;21.93;39.80;99655.16;10426016;28;20045;-58
2023/07/19 05:25:47;;;;;;;1.60;1.05;;;;;;;22.05;39.65;99658.34;10427465;28;20087;-58
2023/07/19 05:30:49;;;;;;;1.92;1.30;;;;;;;23.81;37.47;99651.00;10424612;28;20132;-58
2023/07/19 05:35:51;;;;;;;1.80;1.00;;;;;;;24.44;35.98;99652.28;10425277;28;20055;-58
2023/07/19 05:40:59;;;;;;;9.80;2.55;;;;;;;22.85;37.35;99663.28;10422089;28;20409;-59
2023/07/19 05:46:06;;;;;;;4.90;2.10;;;;;;;21.74;39.33;99660.88;10422378;28;20147;-58
2023/07/19 05:51:08;;;;;;;5.55;2.40;;;;;;;21.31;39.90;99672.69;10423607;28;20428;-59
2023/07/19 05:56:10;;;;;;;5.53;2.40;;;;;;;20.81;40.51;99662.16;10424636;28;20322;-58
2023/07/19 06:01:17;;;;;;;4.47;2.17;;;;;;;20.44;41.37;99660.84;10424535;28;20582;-58
2023/07/19 06:06:21;;;;;;;7.10;2.83;;;;;;;20.34;41.50;99671.59;10426228;28;20067;-58
2023/07/19 06:11:23;;;;;;;7.45;3.35;;;;;;;20.29;41.92;99676.56;10424454;28;20485;-58
2023/07/19 06:16:25;;;;;;;7.07;2.75;;;;;;;20.36;42.00;99679.44;10426897;28;20045;-58
2023/07/19 06:21:31;;;;;;;8.85;2.70;;;;;;;20.22;42.39;99675.53;10425244;28;20159;-58
2023/07/19 06:26:34;;;;;;;9.30;3.88;;;;;;;20.27;42.41;99686.53;10425211;28;20886;-59
2023/07/19 06:31:36;;;;;;;7.13;3.28;;;;;;;20.37;42.35;99676.59;10426111;28;20139;-58
2023/07/19 06:36:38;;;;;;;3.25;1.55;;;;;;;20.47;42.28;99673.81;10423661;28;20122;-58
2023/07/19 06:41:40;;;;;;;2.22;1.20;;;;;;;20.51;42.61;99680.47;10426147;28;21328;-58
2023/07/19 06:46:42;;;;;;;2.25;1.30;;;;;;;20.83;42.05;99660.16;10422608;28;20140;-58
2023/07/19 06:51:44;;;;;;;2.90;1.38;;;;;;;20.99;41.80;99654.84;10426046;28;20037;-58
2023/07/19 06:56:46;;;;;;;4.60;1.20;;;;;;;21.39;41.18;99658.56;10417771;28;20057;-58
2023/07/19 07:01:48;;;;;;;2.13;1.10;;;;;;;21.82;40.49;99655.53;10404968;28;20056;-58
2023/07/19 07:06:50;;;;;;;2.55;1.17;;;;;;;22.16;39.99;99657.94;10424232;28;20049;-58
2023/07/19 07:11:52;;;;;;;2.08;1.20;;;;;;;22.48;39.50;99668.47;10429050;28;20045;-58
2023/07/19 07:16:54;;;;;;;1.75;1.20;;;;;;;22.72;39.17;99659.53;10429464;28;20485;-58
2023/07/19 07:21:57;;;;;;;3.75;1.20;;;;;;;22.94;38.64;99648.06;10430420;28;20077;-58
2023/07/19 07:26:59;;;;;;;2.80;1.05;;;;;;;23.05;38.15;99643.16;10432359;28;20040;-61
2023/07/19 07:32:01;;;;;;;1.60;1.05;;;;;;;23.43;37.65;99646.72;10427505;28;20164;-61
2023/07/19 07:37:04;;;;;;;2.85;1.20;;;;;;;24.10;37.04;99626.97;10432519;28;20063;-61
2023/07/19 07:42:08;;;;;;;2.10;0.98;;;;;;;26.15;35.28;99626.91;10427007;28;20863;-61
2023/07/19 07:47:10;;;;;;;3.50;1.25;;;;;;;27.69;32.88;99613.41;10428548;28;20055;-61
2023/07/19 07:52:15;;;;;;;4.15;1.60;;;;;;;28.64;30.78;99590.16;10429496;28;20079;-61
2023/07/19 07:57:17;;;;;;;1.45;0.90;;;;;;;30.07;29.36;99597.25;10426777;28;20355;-61
2023/07/19 08:02:19;;;;;;;2.97;1.25;;;;;;;31.16;27.47;99578.94;10427639;28;20600;-61
2023/07/19 08:07:21;;;;;;;2.97;1.00;;;;;;;30.22;27.83;99582.34;10428098;28;20219;-61
2023/07/19 08:12:24;;;;;;;1.70;0.98;;;;;;;29.34;28.29;99574.72;10430237;28;20053;-61
2023/07/19 08:17:26;;;;;;;1.80;1.00;;;;;;;28.56;28.90;99574.25;10429825;28;20064;-61
2023/07/19 08:22:28;;;;;;;1.55;1.05;;;;;;;28.38;28.71;99567.94;10430030;28;20128;-61
2023/07/19 08:27:30;;;;;;;2.08;1.20;;;;;;;28.19;28.71;99564.28;10428825;28;20950;-61
2023/07/19 08:32:33;;;;;;;2.58;1.13;;;;;;;28.23;28.73;99550.19;10430122;28;20060;-61
2023/07/19 08:37:35;;;;;;;7.82;1.42;;;;;;;28.67;28.40;99553.88;10428580;28;20401;-61
2023/07/19 08:42:38;;;;;;;3.67;1.17;;;;;;;28.87;28.04;99550.03;10428689;28;20047;-61
2023/07/19 08:47:40;;;;;;;1.70;1.00;;;;;;;29.18;27.57;99542.97;10430110;28;20319;-61
2023/07/19 08:52:43;;;;;;;1.80;1.02;;;;;;;29.40;26.95;99528.09;10426011;28;20567;-61
2023/07/19 08:57:46;;;;;;;1.95;1.00;;;;;;;29.78;27.19;99526.84;10428762;28;20045;-61
2023/07/19 09:02:48;;;;;;;2.88;1.10;;;;;;;29.57;27.10;99521.06;10428958;28;20076;-61
2023/07/19 09:07:50;;;;;;;1.52;1.05;;;;;;;29.12;26.82;99530.38;10428405;28;20502;-61
2023/07/19 09:12:52;;;;;;;1.35;0.95;;;;;;;28.61;27.34;99525.97;10427524;28;20123;-61
2023/07/19 09:17:55;;;;;;;1.75;0.98;;;;;;;29.16;26.66;99527.03;10427257;28;20057;-61
2023/07/19 09:22:58;;;;;;;3.25;0.90;;;;;;;29.84;26.07;99525.09;10428389;28;20059;-61
2023/07/19 09:28:08;;;;;;;4.20;1.15;;;;;;;29.74;24.85;99531.00;10426727;28;20048;-61
2023/07/19 09:33:17;;;;;;;2.80;1.05;;;;;;;29.54;25.36;99535.00;10426349;28;20055;-61
2023/07/19 09:38:20;;;;;;;1.85;1.10;;;;;;;30.63;24.50;99523.03;10426747;28;20044;-61
2023/07/19 09:43:22;;;;;;;2.03;1.15;;;;;;;30.16;24.27;99523.91;10423828;28;20832;-61
2023/07/19 09:48:27;;;;;;;1.13;0.90;;;;;;;30.90;24.47;99519.94;10424536;28;20040;-61
2023/07/19 09:53:32;;;;;;;2.03;1.02;;;;;;;31.51;23.51;99504.13;10425916;28;20053;-61
2023/07/19 09:58:35;;;;;;;2.33;1.00;;;;;;;31.30;23.51;99505.53;10424775;28;20136;-61
2023/07/19 10:03:37;;;;;;;1.67;1.10;;;;;;;31.68;23.08;99494.22;10426205;28;20049;-61
2023/07/19 10:08:39;;;;;;;2.58;1.02;;;;;;;31.12;23.42;99502.94;10425195;28;20182;-61
2023/07/19 10:13:58;;;;;;;2.30;1.00;;;;;;;30.60;23.57;99492.97;10425236;28;20292;-61
2023/07/19 10:19:14;;;;;;;0.85;0.82;;;;;;;30.27;24.43;99488.06;10423124;28;20147;-61
2023/07/19 10:24:17;;;;;;;1.90;1.17;;;;;;;29.95;24.41;99489.31;10424829;28;20041;-61
2023/07/19 10:29:19;;;;;;;1.95;0.95;;;;;;;29.83;24.83;99480.31;10422853;28;20131;-61
2023/07/19 10:34:29;;;;;;;2.47;1.10;;;;;;;29.91;24.40;99479.19;10426037;28;20147;-61
2023/07/19 10:39:45;;;;;;;3.90;0.93;;;;;;;29.42;25.13;99478.31;10425751;28;20251;-61
2023/07/19 10:44:48;;;;;;;1.60;0.90;;;;;;;29.25;25.39;99471.84;10433818;28;20045;-61
2023/07/19 10:49:50;;;;;;;1.05;0.80;;;;;;;28.98;25.92;99470.44;10431100;28;20574;-61
2023/07/19 10:54:55;;;;;;;1.45;1.05;;;;;;;28.91;25.79;99469.69;10432216;28;20134;-61
2023/07/19 11:00:17;;;;;;;3.83;1.13;;;;;;;28.60;26.14;99458.94;10432778;28;20067;-61
2023/07/19 11:05:19;;;;;;;2.08;1.10;;;;;;;28.36;26.57;99465.13;10429477;28;20103;-61
2023/07/19 11:10:22;;;;;;;1.35;0.80;;;;;;;28.19;26.96;99471.00;10432936;28;20136;-61
2023/07/19 11:15:26;;;;;;;1.55;0.90;;;;;;;28.05;27.18;99468.59;10427325;28;20102;-61
2023/07/19 11:20:34;;;;;;;1.92;0.93;;;;;;;27.91;27.02;99454.38;10431444;28;20432;-61
2023/07/19 11:25:38;;;;;;;6.07;1.00;;;;;;;28.29;26.80;99454.41;10420565;28;20195;-61
2023/07/19 11:36:51;;;;;;;7.20;1.40;;;;;;;28.19;26.94;99460.22;8722751;26;20060;-79
2023/07/19 11:41:55;;;;;;;1.65;0.82;;;;;;;27.97;27.48;99450.03;10386302;28;20140;-80
2023/07/19 11:46:59;;;;;;;1.85;1.33;;;;;;;27.81;27.47;99450.53;10395406;28;20437;-82
2023/07/19 11:52:02;;;;;;;2.58;0.98;;;;;;;27.47;28.41;99455.16;10391935;28;20119;-80
2023/07/19 11:57:05;;;;;;;3.88;1.45;;;;;;;27.24;29.64;99462.03;10395162;28;20059;-79
2023/07/19 12:02:09;;;;;;;2.22;1.13;;;;;;;27.45;29.55;99454.53;10377115;28;20813;-80
2023/07/19 12:07:13;;;;;;;1.27;0.90;;;;;;;27.55;29.56;99451.41;10396667;28;20540;-80
2023/07/19 12:12:19;;;;;;;3.03;1.25;;;;;;;27.43;29.86;99432.44;10380296;28;20156;-80
2023/07/19 12:17:23;;;;;;;2.72;1.50;;;;;;;27.46;30.28;99433.88;10393920;28;20037;-80
2023/07/19 12:22:28;;;;;;;3.58;1.33;;;;;;;28.15;30.98;99445.56;10387067;28;20041;-80
2023/07/19 12:27:32;;;;;;;2.67;1.30;;;;;;;28.22;31.08;99438.28;10378851;28;20104;-80
2023/07/19 12:32:34;;;;;;;2.50;1.23;;;;;;;28.05;30.66;99436.31;10389926;28;20140;-81
2023/07/19 12:37:38;;;;;;;3.30;1.38;;;;;;;28.31;30.97;99428.13;10393290;28;20511;-81
2023/07/19 12:42:42;;;;;;;1.33;1.00;;;;;;;28.44;30.22;99419.94;10374783;28;20045;-81
2023/07/19 12:47:45;;;;;;;2.40;1.20;;;;;;;28.03;30.54;99428.44;10373686;28;20046;-80
2023/07/19 12:52:47;;;;;;;1.55;1.10;;;;;;;27.82;30.32;99449.47;10374419;28;20045;-80
2023/07/19 12:57:55;;;;;;;2.63;1.40;;;;;;;27.37;30.60;99453.94;10411151;28;20470;-81
2023/07/19 13:03:01;;;;;;;2.97;1.23;;;;;;;26.65;31.32;99478.97;10349741;28;20097;-80
2023/07/19 13:08:06;;;;;;;2.28;1.10;;;;;;;25.85;33.37;99495.00;10376943;28;20045;-80
2023/07/19 13:13:09;;;;;;;2.55;1.10;;;;;;;25.32;35.24;99514.50;10389960;28;20391;-80
2023/07/19 13:18:11;;;;;;;3.90;1.42;;;;;;;24.76;36.81;99505.59;10392879;28;20060;-80
2023/07/19 13:23:16;;;;;;;2.00;0.90;;;;;;;24.31;38.03;99494.47;10388378;28;20586;-81
2023/07/19 13:28:20;;;;;;;1.45;1.00;;;;;;;24.37;38.30;99475.00;10388887;28;20041;-80
2023/07/19 13:33:25;;;;;;;2.17;0.90;;;;;;;24.62;37.80;99482.41;10369229;28;20732;-80
2023/07/19 13:38:28;;;;;;;1.25;0.95;;;;;;;25.61;36.71;99466.06;10376262;28;20092;-80
2023/07/19 13:43:38;;;;;;;2.70;1.20;;;;;;;26.31;35.50;99454.97;10389326;28;20037;-80
2023/07/19 13:48:41;;;;;;;2.15;1.25;;;;;;;26.35;35.04;99447.34;10391221;28;20651;-80
2023/07/19 13:53:45;;;;;;;1.98;1.20;;;;;;;26.62;34.35;99443.69;10374585;28;20041;-81
2023/07/19 13:58:48;;;;;;;3.65;1.17;;;;;;;26.85;33.91;99436.06;10360064;28;20410;-80
2023/07/19 14:03:51;;;;;;;3.80;1.25;;;;;;;27.49;33.00;99436.13;10373503;28;20050;-80
2023/07/19 14:08:54;;;;;;;3.10;1.00;;;;;;;27.55;32.86;99429.06;10388356;28;20089;-80
2023/07/19 14:13:58;;;;;;;3.08;1.20;;;;;;;27.85;32.41;99435.63;10388666;28;20049;-80
2023/07/19 14:19:00;;;;;;;3.83;1.10;;;;;;;27.86;32.05;99431.88;10375927;28;20057;-79
2023/07/19 14:24:04;;;;;;;3.88;1.17;;;;;;;27.98;31.65;99430.16;10385538;28;20164;-79
2023/07/19 14:29:07;;;;;;;2.22;1.10;;;;;;;28.17;31.15;99435.44;10390888;28;20045;-79
2023/07/19 14:34:13;;;;;;;2.30;1.08;;;;;;;28.14;30.85;99427.78;10386527;28;20156;-78
2023/07/19 14:39:16;;;;;;;2.88;1.13;;;;;;;27.89;31.08;99442.22;10388408;28;20418;-79
2023/07/19 14:44:21;;;;;;;6.30;1.48;;;;;;;28.07;30.64;99434.25;10372375;28;20533;-79
2023/07/19 14:50:13;;;;;;;3.75;1.40;;;;;;;27.88;30.47;99446.75;10374640;28;20076;-79
2023/07/19 14:55:20;;;;;;;3.08;1.15;;;;;;;27.81;30.77;99451.31;10390941;28;20148;-79
2023/07/19 15:00:24;;;;;;;4.00;1.55;;;;;;;27.58;30.99;99450.16;10387965;28;20079;-80
2023/07/19 15:05:32;;;;;;;3.22;1.50;;;;;;;27.09;31.11;99470.28;10374799;28;20058;-80
2023/07/19 15:10:37;;;;;;;2.17;1.20;;;;;;;27.02;31.30;99466.78;10388015;28;20053;-79
2023/07/19 15:15:40;;;;;;;1.33;1.02;;;;;;;26.98;31.51;99473.59;10403743;28;20049;-80
2023/07/19 15:20:47;;;;;;;3.22;1.02;;;;;;;27.02;31.03;99466.78;10387314;28;20173;-80
2023/07/19 15:25:50;;;;;;;1.83;1.05;;;;;;;26.78;31.17;99466.59;10366639;28;20068;-80
2023/07/19 15:30:56;;;;;;;1.98;1.20;;;;;;;26.87;31.21;99470.72;10392342;28;20505;-80
2023/07/19 15:36:00;;;;;;;2.13;0.95;;;;;;;26.95;31.24;99446.34;10380219;28;20068;-79
2023/07/19 15:41:03;;;;;;;1.23;0.88;;;;;;;27.05;30.81;99452.97;10377814;28;20422;-81
2023/07/19 15:46:06;;;;;;;1.23;0.90;;;;;;;27.13;30.62;99458.09;10392163;28;20050;-79
2023/07/19 15:51:10;;;;;;;2.20;1.00;;;;;;;26.91;30.63;99454.00;10358754;28;20042;-79
2023/07/19 15:56:14;;;;;;;5.45;1.05;;;;;;;26.73;31.25;99461.84;10369555;28;20140;-79
2023/07/19 16:01:17;;;;;;;5.10;1.10;;;;;;;26.72;31.13;99459.38;10393904;28;20052;-79
2023/07/19 16:06:21;;;;;;;1.75;0.90;;;;;;;26.46;30.89;99461.00;10394385;28;20482;-79
2023/07/19 16:11:24;;;;;;;3.10;1.02;;;;;;;26.72;30.51;99457.53;10391731;28;20041;-79
2023/07/19 16:16:27;;;;;;;1.65;0.88;;;;;;;26.83;30.44;99466.81;10379627;28;20609;-79
2023/07/19 16:21:34;;;;;;;1.58;0.90;;;;;;;26.69;30.06;99468.66;10368283;28;20056;-79
2023/07/19 16:26:38;;;;;;;1.48;0.90;;;;;;;26.56;30.37;99469.50;10378481;28;20064;-78
2023/07/19 16:31:40;;;;;;;1.70;0.95;;;;;;;26.64;30.21;99463.09;10386612;28;20049;-79
2023/07/19 16:36:43;;;;;;;4.00;0.68;;;;;;;26.52;29.90;99464.69;10410399;28;20057;-79
2023/07/19 16:41:46;;;;;;;2.55;1.33;;;;;;;26.42;29.67;99475.84;10391899;28;20042;-79
2023/07/19 16:46:49;;;;;;;1.25;0.80;;;;;;;26.53;29.95;99471.69;10393627;28;20103;-79
2023/07/19 16:51:53;;;;;;;1.40;0.70;;;;;;;26.66;29.61;99472.59;10391791;28;20041;-79
2023/07/19 16:56:56;;;;;;;1.30;0.68;;;;;;;26.58;29.42;99469.28;10361296;28;20054;-79
2023/07/19 17:01:58;;;;;;;1.02;0.70;;;;;;;26.64;29.51;99471.13;10389946;28;20198;-79
2023/07/19 17:07:02;;;;;;;0.32;0.32;;;;;;;26.91;28.67;99467.44;10389288;28;20052;-79
2023/07/19 17:12:06;;;;;;;0.77;0.60;;;;;;;26.84;28.63;99474.66;10372818;28;20042;-80
2023/07/19 17:17:09;;;;;;;1.55;0.60;;;;;;;26.80;28.59;99473.41;10375248;28;20110;-80
2023/07/19 17:22:15;;;;;;;1.27;0.85;;;;;;;26.72;28.23;99476.31;10350194;28;20123;-80
2023/07/19 17:27:18;;;;;;;1.95;0.70;;;;;;;26.52;28.17;99473.59;10392389;28;21262;-78
2023/07/19 17:32:20;;;;;;;1.05;0.68;;;;;;;26.58;27.89;99475.47;10361216;28;20060;-78
2023/07/19 17:37:24;;;;;;;0.93;0.55;;;;;;;26.32;27.53;99479.94;10370647;28;20144;-78
2023/07/19 17:42:27;;;;;;;0.90;0.52;;;;;;;26.03;28.23;99488.31;10370950;28;20065;-79
2023/07/19 17:47:31;;;;;;;1.15;0.50;;;;;;;25.72;28.25;99488.78;10370733;28;20060;-78
2023/07/19 17:52:34;;;;;;;2.42;0.73;;;;;;;25.47;28.79;99501.84;10385215;28;20585;-78
2023/07/19 17:57:36;;;;;;;0.57;0.50;;;;;;;25.18;29.08;99499.38;10369591;28;20092;-78
2023/07/19 18:02:40;;;;;;;0.70;0.68;;;;;;;25.12;29.41;99502.00;10369487;28;20068;-78
2023/07/19 18:07:43;;;;;;;1.38;0.80;;;;;;;24.97;29.77;99515.47;10355881;28;20354;-78
2023/07/19 18:12:45;;;;;;;1.27;0.73;;;;;;;24.81;29.84;99505.88;10385947;28;20906;-78
2023/07/19 18:17:47;;;;;;;1.95;0.45;;;;;;;24.57;30.14;99514.25;10388921;28;20049;-78
2023/07/19 18:22:50;;;;;;;0.45;0.45;;;;;;;24.60;30.52;99513.88;10379010;28;20053;-78
2023/07/19 18:27:56;;;;;;;1.98;0.50;;;;;;;24.45;30.94;99509.63;10390639;28;20140;-79
2023/07/19 18:32:58;;;;;;;0.50;0.32;;;;;;;23.96;31.99;99520.13;10386845;28;20056;-78
2023/07/19 18:38:01;;;;;;;2.72;0.40;;;;;;;23.55;32.49;99519.81;10357626;28;20149;-81
2023/07/19 18:43:04;;;;;;;1.17;0.80;;;;;;;23.40;33.05;99532.28;10370297;28;20502;-80
2023/07/19 18:48:09;;;;;;;5.28;0.65;;;;;;;23.13;33.82;99528.38;10374143;28;20050;-78
2023/07/19 18:53:11;;;;;;;0.45;0.45;;;;;;;22.89;33.81;99527.75;10370054;28;20879;-78
2023/07/19 18:58:13;;;;;;;0.50;0.50;;;;;;;22.82;34.10;99540.16;10357954;28;21005;-78
2023/07/19 19:03:16;;;;;;;0.95;0.40;;;;;;;22.80;34.50;99544.84;10378000;28;20037;-78
2023/07/19 19:14:40;;;;;;;0.55;0.55;;;;;;;22.55;34.91;99563.66;10394139;28;20701;-80
2023/07/19 19:19:44;;;;;;;4.03;0.70;;;;;;;22.50;35.22;99568.69;10398480;28;20481;-79
2023/07/19 19:24:46;;;;;;;6.80;0.77;;;;;;;22.47;35.52;99565.53;10377364;28;20088;-80
2023/07/19 19:29:50;;;;;;;1.13;0.52;;;;;;;22.37;35.58;99581.75;10363774;28;20139;-80
2023/07/19 19:34:52;;;;;;;0.68;0.47;;;;;;;22.32;35.97;99584.13;10395765;28;20748;-80
2023/07/19 19:39:55;;;;;;;1.48;0.50;;;;;;;22.25;35.93;99588.47;10372864;28;20053;-79
2023/07/19 19:44:57;;;;;;;1.20;0.73;;;;;;;22.31;36.26;99595.75;10381848;28;20049;-80
2023/07/19 19:50:00;;;;;;;1.75;0.57;;;;;;;22.30;36.16;99585.28;10395625;28;20063;-80
2023/07/19 19:55:02;;;;;;;0.95;0.68;;;;;;;22.18;36.36;99590.19;10396232;28;20081;-80
2023/07/19 20:00:05;;;;;;;0.75;0.65;;;;;;;22.12;36.55;99587.38;10380694;28;20048;-80
2023/07/19 20:05:07;;;;;;;0.63;0.60;;;;;;;22.10;36.45;99602.69;10389986;28;20060;-79
2023/07/19 20:10:29;;;;;;;1.80;0.80;;;;;;;22.05;36.57;99600.53;10382878;28;20053;-80
2023/07/19 20:15:51;;;;;;;1.48;0.90;;;;;;;22.07;36.63;99613.72;10396180;28;20034;-80
2023/07/19 20:20:55;;;;;;;2.38;0.70;;;;;;;22.10;36.53;99629.34;10381034;28;20057;-80
2023/07/19 20:25:57;;;;;;;0.90;0.70;;;;;;;21.99;36.44;99625.16;10395628;28;20049;-80
2023/07/19 20:31:15;;;;;;;0.75;0.60;;;;;;;21.97;36.74;99634.31;10372523;28;20045;-80
2023/07/19 20:36:20;;;;;;;2.08;0.68;;;;;;;21.99;36.57;99637.66;10371116;28;20053;-80
2023/07/19 20:41:25;;;;;;;1.65;0.80;;;;;;;21.89;36.99;99638.69;10393158;28;20041;-79
2023/07/19 20:46:30;;;;;;;2.67;1.10;;;;;;;21.80;36.92;99650.34;10378407;28;20455;-80
2023/07/19 20:51:36;;;;;;;0.98;0.80;;;;;;;21.68;37.24;99650.91;10376980;28;20050;-79
2023/07/19 20:56:38;;;;;;;0.95;0.80;;;;;;;21.57;37.39;99659.22;10393004;28;20061;-79
2023/07/19 21:01:41;;;;;;;2.05;0.90;;;;;;;21.44;37.88;99658.88;10361358;28;20053;-80
2023/07/19 21:06:43;;;;;;;1.45;0.90;;;;;;;21.39;37.66;99662.06;10393052;28;20055;-80
2023/07/19 21:11:45;;;;;;;1.10;0.77;;;;;;;21.29;38.10;99671.19;10377532;28;20529;-79
2023/07/19 21:17:12;;;;;;;1.30;0.90;;;;;;;21.24;39.79;99668.16;10376090;28;20564;-80
2023/07/19 21:22:14;;;;;;;1.52;0.85;;;;;;;21.24;38.75;99673.50;10392170;28;20049;-80
2023/07/19 21:27:16;;;;;;;1.40;0.75;;;;;;;21.25;38.68;99678.66;10370827;28;20173;-79
2023/07/19 21:32:19;;;;;;;1.38;0.70;;;;;;;21.11;38.74;99678.47;10368620;28;20092;-80
2023/07/19 21:37:23;;;;;;;1.15;0.80;;;;;;;21.04;38.76;99681.81;10393325;28;20049;-80
2023/07/19 21:42:25;;;;;;;1.85;1.08;;;;;;;20.77;39.32;99681.22;10392137;28;20044;-80
2023/07/19 21:47:28;;;;;;;1.92;0.95;;;;;;;20.44;39.81;99688.22;10376937;28;20069;-80
2023/07/19 21:52:30;;;;;;;0.80;0.80;;;;;;;20.37;39.68;99694.34;10391196;28;20558;-80
2023/07/19 21:57:32;;;;;;;1.67;0.98;;;;;;;20.24;39.98;99692.13;10392708;28;20080;-80
2023/07/19 22:02:34;;;;;;;1.17;0.90;;;;;;;20.11;40.19;99694.41;10375537;28;20095;-79
2023/07/19 22:07:36;;;;;;;1.30;0.80;;;;;;;20.02;40.25;99692.69;10407927;28;20042;-79
2023/07/19 22:12:39;;;;;;;2.15;1.17;;;;;;;19.90;40.66;99696.59;10390964;28;20061;-79
2023/07/19 22:17:41;;;;;;;3.15;1.20;;;;;;;19.79;41.01;99702.97;10376104;28;20506;-79
2023/07/19 22:22:43;;;;;;;0.73;0.65;;;;;;;19.70;41.07;99700.41;10360524;28;20053;-80
2023/07/19 22:27:45;;;;;;;1.20;0.70;;;;;;;19.53;41.41;99703.91;10376393;28;20064;-79
2023/07/19 22:32:47;;;;;;;1.55;0.90;;;;;;;19.42;41.73;99700.53;10375914;28;20041;-79
2023/07/19 22:37:49;;;;;;;1.55;1.08;;;;;;;19.29;42.17;99692.13;10367649;28;20068;-79
2023/07/19 22:42:52;;;;;;;1.27;0.93;;;;;;;19.14;42.46;99695.47;10379697;28;20403;-79
2023/07/19 22:47:54;;;;;;;3.90;1.75;;;;;;;19.10;42.40;99704.69;10398455;28;20068;-79
2023/07/19 22:52:57;;;;;;;4.28;1.15;;;;;;;18.99;42.69;99699.59;10367454;28;20136;-79
2023/07/19 22:57:59;;;;;;;1.65;1.20;;;;;;;18.88;43.04;99699.81;10384832;28;20065;-79
2023/07/19 23:03:01;;;;;;;1.85;0.80;;;;;;;18.83;42.92;99708.19;10398887;28;20450;-79
2023/07/19 23:08:03;;;;;;;2.10;1.02;;;;;;;18.80;43.92;99700.56;10397943;28;20060;-79
2023/07/19 23:13:05;;;;;;;4.25;1.10;;;;;;;18.83;43.41;99704.75;10398591;28;20111;-80
2023/07/19 23:18:07;;;;;;;4.97;0.93;;;;;;;18.79;43.50;99703.38;10399122;28;20049;-79
2023/07/19 23:23:09;;;;;;;1.92;1.10;;;;;;;18.71;44.16;99701.44;10382069;28;20045;-79
2023/07/19 23:28:12;;;;;;;3.63;1.20;;;;;;;18.60;44.26;99694.56;10398503;28;20050;-80
2023/07/19 23:33:14;;;;;;;1.52;1.00;;;;;;;18.66;44.12;99709.03;10381164;28;20054;-79
2023/07/19 23:38:16;;;;;;;2.35;1.25;;;;;;;18.67;43.97;99708.88;10398575;28;20041;-80
2023/07/19 23:43:21;;;;;;;1.45;0.70;;;;;;;18.50;44.33;99714.94;10398878;28;20092;-79